createdAt,value
2022-11-20T00:00:36.226Z,17.87
2022-11-20T00:03:22.827Z,20.00
2022-11-20T00:06:12.343Z,18.47
2022-11-20T00:09:00.897Z,18.43
2022-11-20T00:11:47.289Z,20.27
2022-11-20T00:14:33.963Z,18.13
2022-11-20T00:17:20.475Z,20.07
2022-11-20T00:20:07.786Z,18.63
2022-11-20T00:22:55.312Z,21.87
2022-11-20T00:25:41.641Z,19.23
2022-11-20T00:28:27.746Z,18.47
2022-11-20T00:31:16.354Z,17.20
2022-11-20T00:34:02.592Z,20.37
2022-11-20T00:36:48.910Z,20.57
2022-11-20T00:39:36.791Z,19.70
2022-11-20T00:42:23.951Z,19.53
2022-11-20T00:45:10.395Z,18.00
2022-11-20T00:47:56.555Z,29.73
2022-11-20T00:50:43.722Z,26.77
2022-11-20T00:53:30.371Z,19.10
2022-11-20T00:56:20.125Z,19.87
2022-11-20T00:59:06.733Z,18.43
2022-11-20T01:01:53.299Z,18.80
2022-11-20T01:04:39.877Z,17.27
2022-11-20T01:07:26.243Z,18.87
2022-11-20T01:10:13.258Z,17.97
2022-11-20T01:13:14.791Z,20.17
2022-11-20T01:16:04.672Z,17.33
2022-11-20T01:18:53.243Z,19.13
2022-11-20T01:21:42.087Z,21.37
2022-11-20T01:24:28.615Z,17.17
2022-11-20T01:27:14.891Z,16.47
2022-11-20T01:30:02.725Z,16.40
2022-11-20T01:32:49.140Z,19.80
2022-11-20T01:35:35.627Z,19.97
2022-11-20T01:38:23.497Z,18.87
2022-11-20T01:41:11.194Z,16.97
2022-11-20T01:43:56.682Z,16.97
2022-11-20T01:46:54.552Z,19.63
2022-11-20T01:49:44.999Z,17.47
2022-11-20T01:52:35.999Z,19.33
2022-11-20T01:55:25.713Z,19.27
2022-11-20T01:58:13.520Z,20.07
2022-11-20T02:01:00.088Z,28.27
2022-11-20T02:03:48.535Z,22.03
2022-11-20T02:06:40.737Z,18.53
2022-11-20T02:09:27.123Z,18.30
2022-11-20T02:12:33.839Z,20.30
2022-11-20T02:15:19.291Z,18.93
2022-11-20T02:18:07.586Z,22.50
2022-11-20T02:21:00.834Z,23.03
2022-11-20T02:24:06.001Z,22.13
2022-11-20T02:26:55.208Z,21.27
2022-11-20T02:29:46.035Z,19.03
2022-11-20T02:32:34.404Z,20.47
2022-11-20T02:35:41.950Z,16.43
2022-11-20T02:38:28.472Z,21.70
2022-11-20T02:41:15.936Z,17.47
2022-11-20T02:44:02.201Z,21.00
2022-11-20T02:46:48.520Z,21.70
2022-11-20T02:49:34.967Z,22.57
2022-11-20T02:52:21.231Z,19.57
2022-11-20T02:55:08.728Z,18.27
2022-11-20T02:57:56.798Z,19.57
2022-11-20T03:00:43.009Z,22.23
2022-11-20T03:03:29.446Z,20.63
2022-11-20T03:06:15.592Z,17.90
2022-11-20T03:09:02.183Z,22.83
2022-11-20T03:11:48.591Z,21.27
2022-11-20T03:14:36.857Z,21.30
2022-11-20T03:17:23.313Z,20.67
2022-11-20T03:20:11.091Z,20.00
2022-11-20T03:22:57.849Z,20.50
2022-11-20T03:25:44.090Z,20.53
2022-11-20T03:28:30.313Z,21.80
2022-11-20T03:31:20.225Z,20.47
2022-11-20T03:34:06.772Z,19.30
2022-11-20T03:36:53.312Z,19.13
2022-11-20T03:39:39.684Z,19.83
2022-11-20T03:42:43.363Z,21.33
2022-11-20T03:45:29.780Z,21.63
2022-11-20T03:48:17.368Z,19.17
2022-11-20T03:51:11.045Z,20.07
2022-11-20T03:53:59.419Z,19.93
2022-11-20T03:56:45.626Z,25.77
2022-11-20T03:59:32.395Z,22.13
2022-11-20T04:02:18.743Z,18.43
2022-11-20T04:05:07.817Z,22.40
2022-11-20T04:07:53.997Z,19.33
2022-11-20T04:10:40.750Z,24.13
2022-11-20T04:13:26.933Z,18.73
2022-11-20T04:16:13.760Z,19.13
2022-11-20T04:19:02.753Z,21.67
2022-11-20T04:21:50.622Z,22.10
2022-11-20T04:24:36.765Z,22.90
2022-11-20T04:27:23.280Z,23.80
2022-11-20T04:30:10.792Z,18.67
2022-11-20T04:32:57.091Z,20.97
2022-11-20T04:35:50.630Z,23.10
2022-11-20T04:38:38.851Z,23.93
2022-11-20T04:41:27.659Z,19.63
2022-11-20T04:44:14.344Z,22.30
2022-11-20T04:47:00.565Z,21.37
2022-11-20T04:49:46.936Z,20.73
2022-11-20T04:52:33.709Z,24.00
2022-11-20T04:55:21.187Z,20.63
2022-11-20T04:58:07.630Z,22.33
2022-11-20T05:00:53.967Z,20.20
2022-11-20T05:03:42.540Z,21.53
2022-11-20T05:06:29.281Z,20.33
2022-11-20T05:09:15.539Z,22.70
2022-11-20T05:12:03.363Z,23.40
2022-11-20T05:14:49.479Z,20.77
2022-11-20T05:17:35.900Z,21.47
2022-11-20T05:20:22.115Z,24.63
2022-11-20T05:23:08.363Z,21.53
2022-11-20T05:25:58.929Z,23.47
2022-11-20T05:28:47.856Z,24.97
2022-11-20T05:31:34.172Z,21.13
2022-11-20T05:34:20.736Z,22.37
2022-11-20T05:37:07.198Z,22.43
2022-11-20T05:39:53.691Z,22.70
2022-11-20T05:42:39.833Z,23.70
2022-11-20T05:45:27.991Z,22.03
2022-11-20T05:48:14.147Z,22.93
2022-11-20T05:51:00.875Z,22.63
2022-11-20T05:53:48.726Z,26.07
2022-11-20T05:56:35.218Z,27.13
2022-11-20T05:59:21.650Z,22.73
2022-11-20T06:02:09.939Z,20.60
2022-11-20T06:04:56.576Z,22.63
2022-11-20T06:07:42.823Z,22.60
2022-11-20T06:10:28.963Z,25.77
2022-11-20T06:13:15.541Z,22.83
2022-11-20T06:16:02.088Z,24.13
2022-11-20T06:18:50.122Z,26.17
2022-11-20T06:21:36.784Z,24.70
2022-11-20T06:24:23.789Z,25.93
2022-11-20T06:27:10.288Z,23.43
2022-11-20T06:29:56.885Z,25.07
2022-11-20T06:32:43.033Z,24.87
2022-11-20T06:35:30.668Z,28.57
2022-11-20T06:38:16.993Z,27.90
2022-11-20T06:41:03.447Z,28.33
2022-11-20T06:43:50.272Z,26.43
2022-11-20T06:46:39.172Z,28.83
2022-11-20T06:49:26.208Z,28.20
2022-11-20T06:52:13.908Z,26.93
2022-11-20T06:55:00.081Z,25.83
2022-11-20T06:57:46.282Z,25.83
2022-11-20T07:00:32.602Z,30.03
2022-11-20T07:03:18.934Z,33.03
2022-11-20T07:06:06.372Z,28.50
2022-11-20T07:08:54.348Z,27.37
2022-11-20T07:11:40.549Z,27.57
2022-11-20T07:14:27.250Z,24.83
2022-11-20T07:17:13.820Z,24.83
2022-11-20T07:20:00.101Z,24.03
2022-11-20T07:22:46.311Z,30.47
2022-11-20T07:25:34.171Z,32.10
2022-11-20T07:28:20.411Z,28.27
2022-11-20T07:31:08.480Z,28.10
2022-11-20T07:33:54.824Z,28.80
2022-11-20T07:36:41.712Z,25.17
2022-11-20T07:39:28.253Z,25.73
2022-11-20T07:42:16.359Z,25.10
2022-11-20T07:45:02.723Z,28.33
2022-11-20T07:47:49.071Z,28.60
2022-11-20T07:50:35.353Z,26.93
2022-11-20T07:53:22.715Z,24.30
2022-11-20T07:56:10.424Z,21.40
2022-11-20T07:58:58.185Z,23.40
2022-11-20T08:01:44.711Z,26.93
2022-11-20T08:04:31.235Z,27.40
2022-11-20T08:07:17.583Z,28.20
2022-11-20T08:10:04.236Z,24.90
2022-11-20T08:13:09.672Z,21.50
2022-11-20T08:15:57.587Z,28.80
2022-11-20T08:18:43.777Z,22.50
2022-11-20T08:21:35.170Z,23.10
2022-11-20T08:24:24.228Z,24.17
2022-11-20T08:27:10.323Z,24.97
2022-11-20T08:29:56.523Z,24.10
2022-11-20T08:32:44.547Z,24.03
2022-11-20T08:35:34.224Z,23.90
2022-11-20T08:38:20.575Z,23.27
2022-11-20T08:41:26.590Z,29.47
2022-11-20T08:44:13.121Z,22.43
2022-11-20T08:46:59.393Z,25.20
2022-11-20T08:49:46.860Z,26.53
2022-11-20T08:52:35.703Z,21.00
2022-11-20T08:55:25.731Z,24.33
2022-11-20T08:58:11.980Z,24.30
2022-11-20T09:00:58.857Z,24.27
2022-11-20T09:03:45.214Z,25.37
2022-11-20T09:06:33.096Z,23.57
2022-11-20T09:09:19.828Z,23.20
2022-11-20T09:12:06.676Z,25.93
2022-11-20T09:14:55.094Z,23.77
2022-11-20T09:17:41.531Z,27.63
2022-11-20T09:20:29.591Z,24.00
2022-11-20T09:23:17.305Z,21.57
2022-11-20T09:26:04.888Z,23.97
2022-11-20T09:28:55.417Z,28.53
2022-11-20T09:31:44.228Z,22.17
2022-11-20T09:34:30.676Z,24.63
2022-11-20T09:37:16.843Z,24.73
2022-11-20T09:40:05.857Z,24.07
2022-11-20T09:42:59.547Z,26.73
2022-11-20T09:46:04.075Z,27.03
2022-11-20T09:49:08.385Z,29.83
2022-11-20T09:52:00.865Z,27.67
2022-11-20T09:54:47.494Z,21.20
2022-11-20T09:57:38.872Z,25.00
2022-11-20T10:00:25.534Z,24.57
2022-11-20T10:03:18.613Z,28.17
2022-11-20T10:06:07.151Z,22.47
2022-11-20T10:09:03.247Z,26.93
2022-11-20T10:12:00.206Z,27.53
2022-11-20T10:15:02.148Z,29.53
2022-11-20T10:18:03.359Z,25.70
2022-11-20T10:21:00.179Z,22.37
2022-11-20T10:24:11.223Z,23.07
2022-11-20T10:27:08.493Z,24.37
2022-11-20T10:30:03.019Z,22.70
2022-11-20T10:32:52.086Z,24.93
2022-11-20T10:35:43.701Z,21.63
2022-11-20T10:38:39.054Z,28.27
2022-11-20T10:41:28.653Z,22.93
2022-11-20T10:44:38.763Z,22.17
2022-11-20T10:47:29.451Z,26.23
2022-11-20T10:50:22.611Z,22.07
2022-11-20T10:53:20.308Z,32.57
2022-11-20T10:56:11.823Z,21.27
2022-11-20T10:59:18.602Z,23.10
2022-11-20T11:02:17.445Z,27.97
2022-11-20T11:05:17.087Z,23.47
2022-11-20T11:08:04.464Z,29.73
2022-11-20T11:10:55.672Z,23.27
2022-11-20T11:13:42.177Z,46.43
2022-11-20T11:16:29.098Z,31.17
2022-11-20T11:19:16.001Z,23.73
2022-11-20T11:22:12.834Z,23.67
2022-11-20T11:24:59.629Z,23.53
2022-11-20T11:27:49.227Z,29.70
2022-11-20T11:30:45.123Z,27.53
2022-11-20T11:33:34.526Z,23.27
2022-11-20T11:36:25.694Z,21.67
2022-11-20T11:39:18.166Z,27.20
2022-11-20T11:42:04.525Z,21.23
2022-11-20T11:45:09.289Z,21.00
2022-11-20T11:47:59.232Z,24.97
2022-11-20T11:50:51.321Z,28.30
2022-11-20T11:53:42.372Z,26.50
2022-11-20T11:56:30.923Z,20.53
2022-11-20T11:59:27.575Z,21.23
2022-11-20T12:02:26.166Z,20.37
2022-11-20T12:05:20.372Z,18.43
2022-11-20T12:08:13.964Z,22.93
2022-11-20T12:11:06.497Z,19.93
2022-11-20T12:13:59.110Z,16.87
2022-11-20T12:16:45.749Z,21.43
2022-11-20T12:19:34.159Z,17.37
2022-11-20T12:22:31.279Z,20.53
2022-11-20T12:25:22.329Z,23.03
2022-11-20T12:28:34.515Z,21.10
2022-11-20T12:31:45.407Z,26.87
2022-11-20T12:34:49.432Z,17.80
2022-11-20T12:37:47.636Z,19.37
2022-11-20T12:40:41.130Z,21.03
2022-11-20T12:43:47.492Z,30.50
2022-11-20T12:46:42.160Z,16.30
2022-11-20T12:49:39.651Z,17.17
2022-11-20T12:52:41.220Z,21.70
2022-11-20T12:55:44.120Z,19.20
2022-11-20T12:58:38.955Z,20.50
2022-11-20T13:01:42.070Z,18.77
2022-11-20T13:04:48.015Z,26.97
2022-11-20T13:07:37.062Z,19.30
2022-11-20T13:10:33.347Z,19.00
2022-11-20T13:13:25.916Z,18.47
2022-11-20T13:16:18.495Z,20.37
2022-11-20T13:19:06.617Z,18.40
2022-11-20T13:21:54.335Z,20.93
2022-11-20T13:24:40.611Z,17.40
2022-11-20T13:27:27.376Z,20.40
2022-11-20T13:30:19.008Z,18.60
2022-11-20T13:33:09.095Z,19.23
2022-11-20T13:35:58.491Z,24.23
2022-11-20T13:38:49.497Z,21.57
2022-11-20T13:41:38.889Z,17.53
2022-11-20T13:44:29.300Z,53.13
2022-11-20T13:47:24.322Z,22.40
2022-11-20T13:50:11.331Z,15.00
2022-11-20T13:53:07.932Z,15.23
2022-11-20T13:56:03.086Z,25.63
2022-11-20T13:59:05.045Z,19.27
2022-11-20T14:01:51.806Z,21.60
2022-11-20T14:04:44.465Z,16.97
2022-11-20T14:07:37.565Z,21.40
2022-11-20T14:10:31.379Z,24.47
2022-11-20T14:13:22.179Z,19.43
2022-11-20T14:16:08.652Z,19.07
2022-11-20T14:18:56.420Z,16.10
2022-11-20T14:21:42.785Z,18.77
2022-11-20T14:24:29.203Z,17.90
2022-11-20T14:27:17.344Z,20.83
2022-11-20T14:30:06.360Z,19.03
2022-11-20T14:32:55.357Z,78.13
2022-11-20T14:35:47.239Z,22.70
2022-11-20T14:38:34.394Z,21.40
2022-11-20T14:41:22.447Z,23.30
2022-11-20T14:44:11.035Z,25.90
2022-11-20T14:47:00.096Z,20.77
2022-11-20T14:49:47.707Z,18.23
2022-11-20T14:52:34.224Z,27.53
2022-11-20T14:55:35.160Z,19.07
2022-11-20T14:58:24.715Z,19.17
2022-11-20T15:01:15.269Z,18.90
2022-11-20T15:04:07.391Z,20.03
2022-11-20T15:06:55.778Z,25.43
2022-11-20T15:09:42.367Z,22.83
2022-11-20T15:12:28.951Z,22.03
2022-11-20T15:15:18.810Z,21.53
2022-11-20T15:18:06.071Z,23.37
2022-11-20T15:20:55.636Z,23.07
2022-11-20T15:23:42.075Z,21.47
2022-11-20T15:26:29.799Z,30.70
2022-11-20T15:29:19.589Z,28.33
2022-11-20T15:32:11.982Z,22.53
2022-11-20T15:34:59.791Z,23.50
2022-11-20T15:37:47.630Z,21.07
2022-11-20T15:40:33.926Z,29.40
2022-11-20T15:43:20.311Z,21.60
2022-11-20T15:46:11.148Z,24.10
2022-11-20T15:48:58.829Z,26.40
2022-11-20T15:51:47.208Z,28.20
2022-11-20T15:54:34.930Z,28.50
2022-11-20T15:57:21.317Z,33.50
2022-11-20T16:00:09.667Z,28.60
2022-11-20T16:02:55.963Z,26.13
2022-11-20T16:05:42.256Z,26.97
2022-11-20T16:08:28.735Z,26.57
2022-11-20T16:11:18.423Z,29.70
2022-11-20T16:14:22.948Z,24.73
2022-11-20T16:17:09.855Z,22.47
2022-11-20T16:19:56.035Z,26.23
2022-11-20T16:22:42.496Z,27.07
2022-11-20T16:25:29.556Z,30.90
2022-11-20T16:28:19.094Z,30.77
2022-11-20T16:31:11.273Z,28.37
2022-11-20T16:33:59.498Z,29.50
2022-11-20T16:36:46.336Z,24.80
2022-11-20T16:39:32.608Z,27.37
2022-11-20T16:42:18.912Z,23.67
2022-11-20T16:45:07.751Z,22.27
2022-11-20T16:47:54.219Z,30.20
2022-11-20T16:50:47.905Z,53.50
2022-11-20T16:53:34.932Z,44.00
2022-11-20T16:56:23.734Z,55.63
2022-11-20T16:59:10.756Z,27.93
2022-11-20T17:01:58.485Z,22.80
2022-11-20T17:04:44.582Z,22.70
2022-11-20T17:07:30.813Z,24.37
2022-11-20T17:10:17.167Z,20.17
2022-11-20T17:13:03.679Z,23.70
2022-11-20T17:15:49.882Z,21.67
2022-11-20T17:18:37.939Z,41.63
2022-11-20T17:21:24.292Z,46.33
2022-11-20T17:24:13.394Z,28.47
2022-11-20T17:26:59.961Z,28.03
2022-11-20T17:29:46.744Z,20.20
2022-11-20T17:32:32.986Z,24.23
2022-11-20T17:35:20.988Z,24.00
2022-11-20T17:38:07.432Z,23.57
2022-11-20T17:40:53.911Z,28.17
2022-11-20T17:43:40.732Z,30.23
2022-11-20T17:46:29.039Z,27.30
2022-11-20T17:49:17.853Z,42.63
2022-11-20T17:52:09.343Z,36.13
2022-11-20T17:54:56.062Z,31.80
2022-11-20T17:57:53.659Z,29.83
2022-11-20T18:00:39.891Z,28.63
2022-11-20T18:03:26.325Z,26.37
2022-11-20T18:06:14.509Z,27.73
2022-11-20T18:09:03.448Z,27.93
2022-11-20T18:11:50.119Z,103.83
2022-11-20T18:14:37.056Z,33.33
2022-11-20T18:17:23.748Z,31.63
2022-11-20T18:20:28.721Z,32.80
2022-11-20T18:23:16.959Z,40.27
2022-11-20T18:26:04.558Z,30.27
2022-11-20T18:28:51.416Z,34.43
2022-11-20T18:31:37.810Z,34.20
2022-11-20T18:34:25.458Z,29.10
2022-11-20T18:37:15.216Z,32.20
2022-11-20T18:40:01.523Z,29.07
2022-11-20T18:43:06.749Z,33.90
2022-11-20T18:46:03.514Z,35.37
2022-11-20T18:48:49.777Z,31.67
2022-11-20T18:51:36.614Z,33.30
2022-11-20T18:54:23.596Z,39.43
2022-11-20T18:57:14.371Z,34.03
2022-11-20T19:00:08.338Z,43.47
2022-11-20T19:02:55.424Z,34.43
2022-11-20T19:05:42.043Z,35.30
2022-11-20T19:08:28.452Z,29.57
2022-11-20T19:11:15.196Z,35.90
2022-11-20T19:14:01.667Z,32.90
2022-11-20T19:16:49.596Z,37.43
2022-11-20T19:19:36.372Z,67.27
2022-11-20T19:22:23.014Z,33.83
2022-11-20T19:25:10.378Z,32.67
2022-11-20T19:27:57.240Z,31.57
2022-11-20T19:30:43.489Z,33.63
2022-11-20T19:33:31.588Z,36.50
2022-11-20T19:36:19.939Z,38.53
2022-11-20T19:39:08.931Z,32.50
2022-11-20T19:41:55.506Z,32.57
2022-11-20T19:44:41.923Z,32.50
2022-11-20T19:47:52.662Z,31.00
2022-11-20T19:50:36.399Z,36.83
2022-11-20T19:53:23.033Z,37.03
2022-11-20T19:56:10.389Z,38.13
2022-11-20T19:58:57.866Z,33.80
2022-11-20T20:01:44.519Z,32.47
2022-11-20T20:04:31.484Z,29.43
2022-11-20T20:07:19.101Z,43.07
2022-11-20T20:10:06.012Z,38.37
2022-11-20T20:12:52.589Z,28.33
2022-11-20T20:15:41.772Z,32.30
2022-11-20T20:18:27.987Z,34.90
2022-11-20T20:21:16.795Z,36.20
2022-11-20T20:24:05.224Z,34.37
2022-11-20T20:26:56.832Z,29.67
2022-11-20T20:29:44.741Z,35.73
2022-11-20T20:32:32.220Z,39.80
2022-11-20T20:35:18.688Z,42.20
2022-11-20T20:38:05.225Z,46.77
2022-11-20T20:40:52.840Z,40.00
2022-11-20T20:43:53.644Z,41.40
2022-11-20T20:46:40.133Z,49.97
2022-11-20T20:49:26.614Z,48.37
2022-11-20T20:52:13.234Z,45.60
2022-11-20T20:54:59.606Z,47.33
2022-11-20T20:57:47.375Z,53.10
2022-11-20T21:00:33.678Z,51.70
2022-11-20T21:03:20.703Z,45.57
2022-11-20T21:06:09.722Z,43.57
2022-11-20T21:08:58.392Z,44.97
2022-11-20T21:11:44.815Z,49.07
2022-11-20T21:14:32.961Z,46.70
2022-11-20T21:17:19.345Z,43.80
2022-11-20T21:20:26.793Z,47.80
2022-11-20T21:23:12.550Z,42.47
2022-11-20T21:26:01.724Z,43.43
2022-11-20T21:28:48.140Z,42.37
2022-11-20T21:31:37.326Z,39.30
2022-11-20T21:34:25.052Z,39.40
2022-11-20T21:37:11.868Z,38.00
2022-11-20T21:39:57.993Z,41.57
2022-11-20T21:42:44.628Z,36.03
2022-11-20T21:45:30.965Z,40.47
2022-11-20T21:48:18.912Z,38.10
2022-11-20T21:51:07.073Z,37.17
2022-11-20T21:53:55.664Z,40.13
2022-11-20T21:56:42.520Z,41.03
2022-11-20T21:59:29.084Z,40.10
2022-11-20T22:02:15.431Z,43.37
2022-11-20T22:05:03.834Z,36.10
2022-11-20T22:07:50.119Z,32.70
2022-11-20T22:10:36.669Z,34.60
2022-11-20T22:13:40.972Z,31.47
2022-11-20T22:16:27.981Z,31.97
2022-11-20T22:19:17.927Z,34.77
2022-11-20T22:22:05.947Z,35.57
2022-11-20T22:24:53.452Z,35.70
2022-11-20T22:27:40.255Z,35.87
2022-11-20T22:30:27.420Z,33.27
2022-11-20T22:33:14.115Z,34.97
2022-11-20T22:36:01.805Z,36.97
2022-11-20T22:38:49.780Z,30.93
2022-11-20T22:41:36.232Z,30.63
2022-11-20T22:44:23.111Z,36.83
2022-11-20T22:47:11.488Z,34.37
2022-11-20T22:49:58.067Z,29.43
2022-11-20T22:52:44.351Z,29.80
2022-11-20T22:55:34.076Z,31.07
2022-11-20T22:58:20.334Z,33.83
2022-11-20T23:01:08.710Z,34.20
2022-11-20T23:03:57.523Z,36.17
2022-11-20T23:06:43.812Z,30.60
2022-11-20T23:09:30.048Z,35.03
2022-11-20T23:12:18.042Z,34.77
2022-11-20T23:15:04.517Z,29.83
2022-11-20T23:17:50.785Z,37.07
2022-11-20T23:20:37.400Z,36.90
2022-11-20T23:23:23.837Z,34.17
2022-11-20T23:26:12.726Z,39.33
2022-11-20T23:29:01.450Z,39.77
2022-11-20T23:31:47.868Z,34.07
2022-11-20T23:34:34.056Z,30.97
2022-11-20T23:37:20.391Z,36.53
2022-11-20T23:40:09.081Z,36.30
2022-11-20T23:43:13.135Z,36.23
2022-11-20T23:46:02.266Z,34.23
2022-11-20T23:48:48.839Z,38.07
2022-11-20T23:51:35.399Z,35.23
2022-11-20T23:54:21.628Z,37.53
2022-11-20T23:57:08.052Z,35.30
2022-11-20T23:59:54.259Z,34.63
